This is the latest recevied weather packets stored in our database for station/object WX7FGZ-5. If no packets are shown the sender has not sent any weather packets the latest 1 day(s).
| Time | Temp. | Humidity | Pressure | Rain* | Wind** | Luminosity | Snow |
|---|---|---|---|---|---|---|---|
| 1778003403 | 9.44° C | 52% | 1016.7 hPa | 0 mm | 4.47 m/s, 253° | 264 W/m² | - |
| 1778003276 | 9.44° C | 52% | 1016.7 hPa | 0 mm | 4.47 m/s, 229° | 1106 W/m² | - |
| 1778003102 | 9.44° C | 52% | 1016.7 hPa | 0 mm | 4.47 m/s, 229° | 1106 W/m² | - |
| 1778002503 | 8.89° C | 49% | 1016.8 hPa | 0 mm | 5.81 m/s, 221° | 279 W/m² | - |
| 1778002203 | 9.44° C | 47% | 1016.8 hPa | 0 mm | 4.47 m/s, 182° | 329 W/m² | - |
| 1778002031 | 9.44° C | 46% | 1016.7 hPa | 0 mm | 2.68 m/s, 208° | 1035 W/m² | - |
| 1778001902 | 9.44° C | 46% | 1016.7 hPa | 0 mm | 2.68 m/s, 208° | 1035 W/m² | - |
| 1778001807 | 8.89° C | 44% | 1016.6 hPa | 0 mm | 3.58 m/s, 163° | 988 W/m² | - |
| 1778001616 | 8.89° C | 44% | 1016.6 hPa | 0 mm | 3.58 m/s, 163° | 988 W/m² | - |
| 1778001002 | 8.33° C | 48% | 1016.7 hPa | 0 mm | 3.58 m/s, 173° | 904 W/m² | - |
| 1778000703 | 8.33° C | 50% | 1016.7 hPa | 0 mm | 4.47 m/s, 178° | 933 W/m² | - |
| 1778000402 | 7.78° C | 48% | 1016.7 hPa | 0 mm | 3.13 m/s, 180° | 362 W/m² | - |
| 1778000103 | 8.33° C | 49% | 1016.8 hPa | 0 mm | 2.68 m/s, 204° | 350 W/m² | - |
| 1777999803 | 8.33° C | 50% | 1016.9 hPa | 0 mm | 4.47 m/s, 197° | 427 W/m² | - |
| 1777998903 | 8.33° C | 50% | 1017.2 hPa | 0 mm | 4.92 m/s, 209° | 431 W/m² | - |
| 1777998606 | 8.89° C | 54% | 1017.3 hPa | 0 mm | 5.36 m/s, 236° | 1044 W/m² | - |
| 1777998452 | 8.33° C | 54% | 1017.4 hPa | 0 mm | 4.92 m/s, 241° | 1005 W/m² | - |
| 1777998343 | 8.33° C | 54% | 1017.4 hPa | 0 mm | 4.92 m/s, 241° | 1005 W/m² | - |
| 1777998302 | 8.33° C | 54% | 1017.4 hPa | 0 mm | 4.92 m/s, 241° | 1005 W/m² | - |
| 1777998283 | 7.78° C | 56% | 1017.3 hPa | 0 mm | 5.36 m/s, 211° | 1007 W/m² | - |
| 1777998003 | 7.78° C | 56% | 1017.3 hPa | 0 mm | 5.36 m/s, 211° | 1007 W/m² | - |
| 1777997404 | 7.22° C | 54% | 1017.2 hPa | 0 mm | 4.47 m/s, 196° | 163 W/m² | - |
| 1777997103 | 7.22° C | 52% | 1017.2 hPa | 0 mm | 4.92 m/s, 198° | 279 W/m² | - |
| 1777997039 | 7.22° C | 54% | 1017 hPa | 0 mm | 4.92 m/s, 193° | 445 W/m² | - |
| 1777996806 | 7.22° C | 54% | 1017 hPa | 0 mm | 4.92 m/s, 193° | 445 W/m² | - |
* Rain latest hour (hover to see other rain measurements)
** Current wind speed in m/s (hover to see current wind gust speed)